createdAt,value
2023-04-01T00:03:06.232Z,0.30
2023-04-01T00:07:13.045Z,0.40
2023-04-01T00:11:20.582Z,0.20
2023-04-01T00:15:27.449Z,0.20
2023-04-01T00:19:34.108Z,0.30
2023-04-01T00:23:40.826Z,0.20
2023-04-01T00:27:47.724Z,0.30
2023-04-01T00:31:54.435Z,0.22
2023-04-01T00:36:12.196Z,0.20
2023-04-01T00:40:29.724Z,0.68
2023-04-01T00:44:39.416Z,0.30
2023-04-01T00:48:51.254Z,0.20
2023-04-01T00:52:59.035Z,0.25
2023-04-01T00:57:28.707Z,0.20
2023-04-01T01:01:36.900Z,0.20
2023-04-01T01:06:31.080Z,0.50
2023-04-01T01:10:40.257Z,0.88
2023-04-01T01:15:09.656Z,0.30
2023-04-01T01:19:36.113Z,0.40
2023-04-01T01:23:54.673Z,0.60
2023-04-01T01:28:36.304Z,0.70
2023-04-01T01:33:11.972Z,1.48
2023-04-01T01:37:22.053Z,1.92
2023-04-01T01:41:30.268Z,1.92
2023-04-01T01:45:41.440Z,1.50
2023-04-01T01:49:49.312Z,1.67
2023-04-01T01:53:56.176Z,1.83
2023-04-01T01:58:08.805Z,2.60
2023-04-01T02:02:17.010Z,1.70
2023-04-01T02:06:28.505Z,2.60
2023-04-01T02:10:39.960Z,2.10
2023-04-01T02:15:08.008Z,3.13
2023-04-01T02:19:16.278Z,2.40
2023-04-01T02:23:23.425Z,2.22
2023-04-01T02:27:31.374Z,1.88
2023-04-01T02:31:38.280Z,2.03
2023-04-01T02:35:45.356Z,1.95
2023-04-01T02:39:51.990Z,2.67
2023-04-01T02:43:59.491Z,2.53
2023-04-01T02:48:06.538Z,3.40
2023-04-01T02:52:14.018Z,2.80
2023-04-01T02:56:20.935Z,1.75
2023-04-01T03:00:27.631Z,1.60
2023-04-01T03:04:34.421Z,1.70
2023-04-01T03:08:41.361Z,2.25
2023-04-01T03:12:48.072Z,2.47
2023-04-01T03:16:54.938Z,2.22
2023-04-01T03:21:19.545Z,2.45
2023-04-01T03:25:26.254Z,2.05
2023-04-01T03:29:33.312Z,2.28
2023-04-01T03:33:40.872Z,2.22
2023-04-01T03:37:47.585Z,1.38
2023-04-01T03:41:54.269Z,1.92
2023-04-01T03:46:01.197Z,1.90
2023-04-01T03:50:08.749Z,1.10
2023-04-01T03:54:15.593Z,1.10
2023-04-01T03:58:22.237Z,0.88
2023-04-01T04:02:28.960Z,0.60
2023-04-01T04:06:35.782Z,0.65
2023-04-01T04:10:42.970Z,0.60
2023-04-01T04:14:49.607Z,0.50
2023-04-01T04:18:56.306Z,0.47
2023-04-01T04:23:02.960Z,0.80
2023-04-01T04:27:09.641Z,0.60
2023-04-01T04:31:21.758Z,0.70
2023-04-01T04:35:28.473Z,1.05
2023-04-01T04:39:35.290Z,1.45
2023-04-01T04:43:43.093Z,1.00
2023-04-01T04:47:49.894Z,1.20
2023-04-01T04:51:56.625Z,1.00
2023-04-01T04:56:03.267Z,1.15
2023-04-01T05:00:13.854Z,0.75
2023-04-01T05:04:20.628Z,1.05
2023-04-01T05:08:27.300Z,0.98
2023-04-01T05:12:37.010Z,0.90
2023-04-01T05:16:43.773Z,1.15
2023-04-01T05:20:52.578Z,1.20
2023-04-01T05:25:02.033Z,1.00
2023-04-01T05:29:08.757Z,0.90
2023-04-01T05:33:15.705Z,0.90
2023-04-01T05:37:23.841Z,1.10
2023-04-01T05:41:30.840Z,1.02
2023-04-01T05:45:37.752Z,1.55
2023-04-01T05:49:44.403Z,1.30
2023-04-01T05:53:51.256Z,1.30
2023-04-01T05:57:58.111Z,1.23
2023-04-01T06:02:05.298Z,1.20
2023-04-01T06:06:26.134Z,1.27
2023-04-01T06:11:00.650Z,1.35
2023-04-01T06:15:18.340Z,1.58
2023-04-01T06:19:37.424Z,1.67
2023-04-01T06:24:17.344Z,2.35
2023-04-01T06:28:33.242Z,3.88
2023-04-01T06:33:29.714Z,3.92
2023-04-01T06:37:50.483Z,3.85
2023-04-01T06:42:18.979Z,4.63
2023-04-01T06:46:58.464Z,5.25
2023-04-01T06:51:17.609Z,5.28
2023-04-01T06:55:36.778Z,5.57
2023-04-01T06:59:44.220Z,5.93
2023-04-01T07:03:58.036Z,6.43
2023-04-01T07:08:11.296Z,6.53
2023-04-01T07:12:45.229Z,6.25
2023-04-01T07:17:13.221Z,7.20
2023-04-01T07:21:26.013Z,6.80
2023-04-01T07:25:40.672Z,6.38
2023-04-01T07:29:47.931Z,6.65
2023-04-01T07:34:23.081Z,5.80
2023-04-01T07:38:41.801Z,5.55
2023-04-01T07:43:12.663Z,4.95
2023-04-01T07:47:34.725Z,4.32
2023-04-01T07:52:09.124Z,5.03
2023-04-01T07:56:43.544Z,5.25
2023-04-01T08:01:04.501Z,4.45
2023-04-01T08:05:31.698Z,3.65
2023-04-01T08:09:52.006Z,3.38
2023-04-01T08:14:16.318Z,4.13
2023-04-01T08:18:22.914Z,3.40
2023-04-01T08:22:41.519Z,4.13
2023-04-01T08:26:53.368Z,3.63
2023-04-01T08:31:07.306Z,3.55
2023-04-01T08:35:34.855Z,3.33
2023-04-01T08:39:51.121Z,2.22
2023-04-01T08:44:19.676Z,2.20
2023-04-01T08:48:42.420Z,1.65
2023-04-01T08:53:00.523Z,1.40
2023-04-01T08:57:35.640Z,1.40
2023-04-01T09:02:00.221Z,1.25
2023-04-01T09:06:26.121Z,0.98
2023-04-01T09:10:54.033Z,0.93
2023-04-01T09:15:18.829Z,1.33
2023-04-01T09:19:54.184Z,2.22
2023-04-01T09:24:35.834Z,1.60
2023-04-01T09:29:04.225Z,1.27
2023-04-01T09:33:18.244Z,1.20
2023-04-01T09:37:52.064Z,1.70
2023-04-01T09:42:01.793Z,1.55
2023-04-01T09:46:24.710Z,1.15
2023-04-01T09:51:06.725Z,1.35
2023-04-01T09:55:22.580Z,1.33
2023-04-01T09:59:41.329Z,1.70
2023-04-01T10:04:08.023Z,2.17
2023-04-01T10:08:20.343Z,1.75
2023-04-01T10:12:49.804Z,2.00
2023-04-01T10:17:15.382Z,1.88
2023-04-01T10:21:48.810Z,1.75
2023-04-01T10:26:16.874Z,1.65
2023-04-01T10:30:38.473Z,1.30
2023-04-01T10:35:15.414Z,1.02
2023-04-01T10:40:18.682Z,1.48
2023-04-01T10:44:40.125Z,1.20
2023-04-01T10:49:01.725Z,1.30
2023-04-01T10:53:26.441Z,1.70
2023-04-01T10:57:47.749Z,1.50
2023-04-01T11:02:45.280Z,2.07
2023-04-01T11:07:18.562Z,1.23
2023-04-01T11:12:02.617Z,1.50
2023-04-01T11:16:44.345Z,1.45
2023-04-01T11:21:03.857Z,2.00
2023-04-01T11:25:58.912Z,1.35
2023-04-01T11:30:19.550Z,0.40
2023-04-01T11:34:57.404Z,0.50
2023-04-01T11:39:47.426Z,1.20
2023-04-01T11:44:19.986Z,0.90
2023-04-01T11:48:51.979Z,0.90
2023-04-01T11:53:20.364Z,1.20
2023-04-01T11:57:59.153Z,1.60
2023-04-01T12:02:21.280Z,1.73
2023-04-01T12:10:49.905Z,1.10
2023-04-01T12:15:17.908Z,1.30
2023-04-01T12:19:36.679Z,1.38
2023-04-01T12:23:44.287Z,3.17
2023-04-01T12:27:54.034Z,0.45
2023-04-01T12:32:10.815Z,0.60
2023-04-01T12:36:41.474Z,0.60
2023-04-01T12:41:31.410Z,0.60
2023-04-01T12:46:02.114Z,0.40
2023-04-01T12:50:26.744Z,0.50
2023-04-01T12:55:04.120Z,0.70
2023-04-01T12:59:16.567Z,0.60
2023-04-01T13:03:45.722Z,0.40
2023-04-01T13:07:55.002Z,0.90
2023-04-01T13:12:30.971Z,1.00
2023-04-01T13:16:39.911Z,1.25
2023-04-01T13:21:19.996Z,0.95
2023-04-01T13:25:48.237Z,0.50
2023-04-01T13:30:21.868Z,0.40
2023-04-01T13:34:33.447Z,0.50
2023-04-01T13:39:16.862Z,0.40
2023-04-01T13:43:25.706Z,0.77
2023-04-01T13:48:23.797Z,0.85
2023-04-01T13:53:07.514Z,0.40
2023-04-01T13:57:42.961Z,0.70
2023-04-01T14:01:58.397Z,0.70
2023-04-01T14:06:27.567Z,0.82
2023-04-01T14:11:08.629Z,0.75
2023-04-01T14:15:30.567Z,1.00
2023-04-01T14:20:04.955Z,1.08
2023-04-01T14:24:36.949Z,1.45
2023-04-01T14:28:43.589Z,1.38
2023-04-01T14:32:59.370Z,1.60
2023-04-01T14:37:35.506Z,2.08
2023-04-01T14:42:22.424Z,1.63
2023-04-01T14:46:45.858Z,1.90
2023-04-01T14:50:55.681Z,1.55
2023-04-01T14:55:19.710Z,1.63
2023-04-01T14:59:27.935Z,1.40
2023-04-01T15:04:14.332Z,1.25
2023-04-01T15:08:27.587Z,1.15
2023-04-01T15:12:34.187Z,1.17
2023-04-01T15:17:08.272Z,1.60
2023-04-01T15:21:51.456Z,1.60
2023-04-01T15:26:22.385Z,1.10
2023-04-01T15:30:54.924Z,1.40
2023-04-01T15:39:38.500Z,1.73
2023-04-01T15:43:50.634Z,2.72
2023-04-01T15:48:14.502Z,2.20
2023-04-01T15:52:48.761Z,1.63
2023-04-01T15:57:27.535Z,1.95
2023-04-01T16:02:22.764Z,2.05
2023-04-01T16:07:14.707Z,1.80
2023-04-01T16:11:41.918Z,1.97
2023-04-01T16:16:19.511Z,2.30
2023-04-01T16:20:52.178Z,1.98
2023-04-01T16:29:29.945Z,2.10
2023-04-01T16:33:47.577Z,1.95
2023-04-01T16:38:09.579Z,1.83
2023-04-01T16:42:45.471Z,1.33
2023-04-01T16:46:54.226Z,1.23
2023-04-01T16:51:13.710Z,0.90
2023-04-01T16:55:23.310Z,0.80
2023-04-01T16:59:55.953Z,1.05
2023-04-01T17:08:28.021Z,1.23
2023-04-01T17:13:03.221Z,1.20
2023-04-01T17:17:19.282Z,1.33
2023-04-01T17:21:36.619Z,1.63
2023-04-01T17:25:56.820Z,1.15
2023-04-01T17:30:18.619Z,1.98
2023-04-01T17:34:43.711Z,2.13
2023-04-01T17:39:09.075Z,2.92
2023-04-01T17:43:41.522Z,3.00
2023-04-01T17:48:00.827Z,2.70
2023-04-01T17:52:38.744Z,2.40
2023-04-01T17:57:22.799Z,2.20
2023-04-01T18:01:56.969Z,2.80
2023-04-01T18:06:12.674Z,3.50
2023-04-01T18:10:46.973Z,2.95
2023-04-01T18:15:15.290Z,2.75
2023-04-01T18:19:52.898Z,2.25
2023-04-01T18:24:13.820Z,2.17
2023-04-01T18:28:28.408Z,1.98
2023-04-01T18:32:58.077Z,2.50
2023-04-01T18:37:43.188Z,2.35
2023-04-01T18:42:25.286Z,2.67
2023-04-01T18:46:54.158Z,3.00
2023-04-01T18:51:27.906Z,3.20
2023-04-01T18:55:43.982Z,3.20
2023-04-01T19:00:04.061Z,3.25
2023-04-01T19:04:27.619Z,2.60
2023-04-01T19:08:37.261Z,3.08
2023-04-01T19:13:13.325Z,3.53
2023-04-01T19:17:23.094Z,4.10
2023-04-01T19:21:35.815Z,5.15
2023-04-01T19:26:05.856Z,4.20
2023-04-01T19:30:33.282Z,3.70
2023-04-01T19:35:01.756Z,4.35
2023-04-01T19:39:50.113Z,3.97
2023-04-01T19:44:21.873Z,3.42
2023-04-01T19:48:47.665Z,4.63
2023-04-01T19:53:00.594Z,3.63
2023-04-01T19:57:22.872Z,4.53
2023-04-01T20:01:44.855Z,4.70
2023-04-01T20:10:26.362Z,5.97
2023-04-01T20:14:51.142Z,6.35
2023-04-01T20:19:03.066Z,5.43
2023-04-01T20:23:38.856Z,5.90
2023-04-01T20:27:52.877Z,5.85
2023-04-01T20:32:13.837Z,5.97
2023-04-01T20:36:48.701Z,5.00
2023-04-01T20:41:18.291Z,4.93
2023-04-01T20:45:30.889Z,4.18
2023-04-01T20:49:41.765Z,4.75
2023-04-01T20:54:01.507Z,3.63
2023-04-01T20:58:36.489Z,3.65
2023-04-01T21:02:54.123Z,3.50
2023-04-01T21:07:29.161Z,2.88
2023-04-01T21:11:50.718Z,3.53
2023-04-01T21:16:03.339Z,3.53
2023-04-01T21:20:48.338Z,3.88
2023-04-01T21:25:04.252Z,3.50
2023-04-01T21:29:41.175Z,3.92
2023-04-01T21:34:12.511Z,3.70
2023-04-01T21:38:49.773Z,4.43
2023-04-01T21:43:05.113Z,5.38
2023-04-01T21:47:50.812Z,5.20
2023-04-01T21:52:15.576Z,4.43
2023-04-01T21:56:25.322Z,4.20
2023-04-01T22:00:52.462Z,4.28
2023-04-01T22:05:17.822Z,4.70
2023-04-01T22:09:56.031Z,4.28
2023-04-01T22:14:13.524Z,4.18
2023-04-01T22:18:29.900Z,4.22
2023-04-01T22:22:53.366Z,4.75
2023-04-01T22:27:13.981Z,5.82
2023-04-01T22:31:34.626Z,6.50
2023-04-01T22:35:58.194Z,7.05
2023-04-01T22:40:14.601Z,7.35
2023-04-01T22:44:40.282Z,7.90
2023-04-01T22:48:50.342Z,7.53
2023-04-01T22:53:04.098Z,7.60
2023-04-01T22:57:16.135Z,9.15
2023-04-01T23:01:29.067Z,8.93
2023-04-01T23:05:52.015Z,5.85
2023-04-01T23:10:02.202Z,5.93
2023-04-01T23:14:29.746Z,4.95
2023-04-01T23:18:58.412Z,3.92
2023-04-01T23:23:31.369Z,3.35
2023-04-01T23:27:46.577Z,3.42
2023-04-01T23:32:13.899Z,3.50
2023-04-01T23:36:20.923Z,3.33
2023-04-01T23:40:27.613Z,4.50
2023-04-01T23:44:36.307Z,3.92
2023-04-01T23:48:47.470Z,6.10
2023-04-01T23:53:18.481Z,7.63
2023-04-01T23:57:31.979Z,6.35
